createdAt,value
2022-08-16T00:01:10.280Z,5.70
2022-08-16T00:04:32.079Z,5.00
2022-08-16T00:08:08.829Z,6.10
2022-08-16T00:11:52.697Z,6.50
2022-08-16T00:15:52.199Z,7.30
2022-08-16T00:19:41.948Z,6.10
2022-08-16T00:23:24.586Z,5.50
2022-08-16T00:26:56.700Z,4.90
2022-08-16T00:30:33.453Z,5.10
2022-08-16T00:34:09.762Z,5.50
2022-08-16T00:38:40.670Z,5.80
2022-08-16T00:41:50.447Z,6.30
2022-08-16T00:45:58.274Z,5.80
2022-08-16T00:49:23.112Z,5.60
2022-08-16T00:52:59.972Z,6.40
2022-08-16T00:56:59.979Z,6.60
2022-08-16T01:00:28.193Z,6.60
2022-08-16T01:04:00.621Z,6.40
2022-08-16T01:07:51.075Z,7.00
2022-08-16T01:11:15.419Z,6.10
2022-08-16T01:14:57.472Z,5.80
2022-08-16T01:18:38.970Z,6.60
2022-08-16T01:22:47.669Z,6.60
2022-08-16T01:26:34.827Z,7.30
2022-08-16T01:30:27.783Z,6.50
2022-08-16T01:33:50.204Z,7.00
2022-08-16T01:37:26.614Z,7.10
2022-08-16T01:41:19.928Z,6.80
2022-08-16T01:44:44.576Z,7.20
2022-08-16T01:48:23.881Z,6.10
2022-08-16T01:52:02.634Z,6.10
2022-08-16T01:55:41.528Z,6.00
2022-08-16T01:59:17.116Z,6.00
2022-08-16T02:02:55.450Z,6.40
2022-08-16T02:06:34.445Z,6.40
2022-08-16T02:10:27.137Z,6.50
2022-08-16T02:13:50.180Z,6.10
2022-08-16T02:17:45.161Z,4.90
2022-08-16T02:21:09.866Z,6.20
2022-08-16T02:24:45.829Z,6.20
2022-08-16T02:28:24.437Z,6.20
2022-08-16T02:32:03.930Z,6.50
2022-08-16T02:35:54.093Z,7.30
2022-08-16T02:39:23.073Z,6.40
2022-08-16T02:43:17.771Z,6.70
2022-08-16T02:46:40.205Z,5.90
2022-08-16T02:50:53.872Z,7.10
2022-08-16T02:53:59.469Z,7.10
2022-08-16T02:57:35.858Z,6.50
2022-08-16T03:01:24.710Z,6.60
2022-08-16T03:05:00.241Z,7.20
2022-08-16T03:08:52.699Z,6.80
2022-08-16T03:12:18.627Z,7.50
2022-08-16T03:16:33.074Z,8.10
2022-08-16T03:20:18.311Z,8.30
2022-08-16T03:23:40.770Z,6.80
2022-08-16T03:27:16.804Z,7.40
2022-08-16T03:30:54.033Z,8.00
2022-08-16T03:34:33.450Z,8.90
2022-08-16T03:38:32.745Z,8.70
2022-08-16T03:41:59.759Z,7.60
2022-08-16T03:45:37.327Z,7.70
2022-08-16T03:49:13.417Z,8.50
2022-08-16T03:52:49.326Z,8.20
2022-08-16T03:56:27.315Z,7.70
2022-08-16T04:00:20.621Z,7.70
2022-08-16T04:03:58.029Z,7.50
2022-08-16T04:07:52.035Z,8.20
2022-08-16T04:11:16.422Z,7.20
2022-08-16T04:14:50.545Z,7.70
2022-08-16T04:18:27.431Z,7.20
2022-08-16T04:22:27.706Z,8.30
2022-08-16T04:26:17.245Z,6.90
2022-08-16T04:30:02.767Z,6.50
2022-08-16T04:33:28.643Z,6.50
2022-08-16T04:37:07.329Z,7.30
2022-08-16T04:41:01.061Z,8.10
2022-08-16T04:44:53.373Z,8.40
2022-08-16T04:48:21.765Z,8.70
2022-08-16T04:52:34.140Z,9.70
2022-08-16T04:56:18.596Z,8.50
2022-08-16T04:59:40.508Z,8.60
2022-08-16T05:03:17.444Z,9.40
2022-08-16T05:06:54.272Z,8.90
2022-08-16T05:10:31.492Z,8.20
2022-08-16T05:14:07.771Z,8.80
2022-08-16T05:18:04.139Z,9.20
2022-08-16T05:21:48.557Z,10.30
2022-08-16T05:25:14.368Z,10.10
2022-08-16T05:29:11.094Z,9.50
2022-08-16T05:32:47.381Z,8.10
2022-08-16T05:36:36.616Z,8.10
2022-08-16T05:40:19.031Z,8.80
2022-08-16T05:43:47.519Z,8.60
2022-08-16T05:47:20.607Z,9.40
2022-08-16T05:50:57.458Z,8.70
2022-08-16T05:54:34.140Z,8.90
2022-08-16T05:58:31.743Z,8.50
2022-08-16T06:01:54.480Z,8.80
2022-08-16T06:05:31.000Z,10.40
2022-08-16T06:09:25.926Z,10.50
2022-08-16T06:13:05.831Z,10.80
2022-08-16T06:17:05.237Z,10.10
2022-08-16T06:20:35.259Z,9.90
2022-08-16T06:24:54.156Z,8.90
2022-08-16T06:27:57.617Z,8.90
2022-08-16T06:31:30.183Z,9.20
2022-08-16T06:35:08.134Z,9.90
2022-08-16T06:39:05.129Z,9.10
2022-08-16T06:42:59.666Z,8.30
2022-08-16T06:46:40.856Z,9.20
2022-08-16T06:50:22.282Z,9.50
2022-08-16T06:54:14.245Z,8.90
2022-08-16T06:57:39.770Z,8.50
2022-08-16T07:01:15.002Z,8.50
2022-08-16T07:05:15.210Z,9.10
2022-08-16T07:09:09.786Z,10.00
2022-08-16T07:12:47.131Z,10.50
2022-08-16T07:16:16.751Z,9.10
2022-08-16T07:20:29.801Z,7.60
2022-08-16T07:23:41.236Z,7.30
2022-08-16T07:27:37.278Z,7.90
2022-08-16T07:31:05.072Z,9.10
2022-08-16T07:34:48.432Z,8.40
2022-08-16T07:38:19.496Z,8.50
2022-08-16T07:41:53.169Z,7.60
2022-08-16T07:45:29.600Z,7.30
2022-08-16T07:49:11.377Z,7.50
2022-08-16T07:52:44.859Z,7.50
2022-08-16T07:56:20.536Z,8.30
2022-08-16T07:59:57.259Z,7.90
2022-08-16T08:03:36.098Z,7.40
2022-08-16T08:07:12.407Z,6.10
2022-08-16T08:10:47.704Z,6.20
2022-08-16T08:14:29.368Z,7.00
2022-08-16T08:18:30.058Z,7.70
2022-08-16T08:22:00.527Z,7.40
2022-08-16T08:25:54.587Z,7.60
2022-08-16T08:29:23.227Z,7.30
2022-08-16T08:33:17.412Z,6.80
2022-08-16T08:36:42.599Z,7.30
2022-08-16T08:40:19.860Z,7.00
2022-08-16T08:43:57.889Z,5.90
2022-08-16T08:47:54.204Z,6.60
2022-08-16T08:51:41.369Z,6.60
2022-08-16T08:55:27.252Z,6.30
2022-08-16T08:58:58.120Z,5.50
2022-08-16T09:02:50.420Z,6.50
2022-08-16T09:06:35.478Z,6.70
2022-08-16T09:10:06.437Z,5.80
2022-08-16T09:13:35.358Z,5.00
2022-08-16T09:17:31.591Z,5.30
2022-08-16T09:20:59.849Z,5.10
2022-08-16T09:24:47.153Z,5.70
2022-08-16T09:28:38.102Z,5.40
2022-08-16T09:32:28.591Z,5.90
2022-08-16T09:35:56.509Z,5.80
2022-08-16T09:39:41.281Z,5.60
2022-08-16T09:43:37.783Z,5.90
2022-08-16T09:46:57.890Z,5.70
2022-08-16T09:50:50.187Z,5.70
2022-08-16T09:54:17.018Z,5.30
2022-08-16T09:57:52.728Z,6.10
2022-08-16T10:01:28.591Z,6.70
2022-08-16T10:05:06.567Z,6.20
2022-08-16T10:09:04.640Z,6.30
2022-08-16T10:12:55.713Z,5.30
2022-08-16T10:16:38.940Z,5.90
2022-08-16T10:20:00.989Z,6.30
2022-08-16T10:23:39.275Z,6.00
2022-08-16T10:27:26.313Z,6.50
2022-08-16T10:31:16.920Z,6.60
2022-08-16T10:34:54.958Z,5.80
2022-08-16T10:38:36.526Z,6.00
2022-08-16T10:42:08.277Z,5.90
2022-08-16T10:45:44.937Z,6.20
2022-08-16T10:49:42.509Z,6.20
2022-08-16T10:53:07.770Z,6.20
2022-08-16T10:56:55.985Z,6.30
2022-08-16T11:00:21.449Z,6.10
2022-08-16T11:03:57.301Z,6.10
2022-08-16T11:07:52.174Z,5.40
2022-08-16T11:11:35.531Z,6.10
2022-08-16T11:15:18.435Z,5.30
2022-08-16T11:19:05.750Z,6.20
2022-08-16T11:22:47.353Z,5.50
2022-08-16T11:26:23.642Z,6.30
2022-08-16T11:29:50.076Z,6.40
2022-08-16T11:33:52.188Z,6.00
2022-08-16T11:37:14.998Z,6.00
2022-08-16T11:41:09.406Z,5.90
2022-08-16T11:44:53.119Z,5.90
2022-08-16T11:48:14.552Z,5.80
2022-08-16T11:51:51.735Z,5.90
2022-08-16T11:55:54.492Z,6.00
2022-08-16T11:59:19.616Z,5.70
2022-08-16T12:03:14.078Z,6.10
2022-08-16T12:06:36.344Z,5.80
2022-08-16T12:10:19.423Z,6.00
2022-08-16T12:14:08.623Z,7.80
2022-08-16T12:17:32.448Z,10.70
2022-08-16T12:21:09.778Z,15.70
2022-08-16T12:24:44.394Z,12.00
2022-08-16T12:28:25.501Z,7.60
2022-08-16T12:32:37.854Z,6.30
2022-08-16T12:36:01.743Z,6.10
2022-08-16T12:39:38.054Z,5.80
2022-08-16T12:43:16.319Z,5.80
2022-08-16T12:47:11.524Z,5.30
2022-08-16T12:50:38.698Z,5.50
2022-08-16T12:54:17.463Z,6.60
2022-08-16T12:57:58.544Z,5.90
2022-08-16T13:01:32.379Z,5.50
2022-08-16T13:05:07.068Z,5.20
2022-08-16T13:08:42.667Z,5.70
2022-08-16T13:12:25.065Z,5.80
2022-08-16T13:16:00.857Z,6.30
2022-08-16T13:19:49.798Z,6.10
2022-08-16T13:23:16.483Z,6.10
2022-08-16T13:27:12.735Z,6.70
2022-08-16T13:30:43.329Z,6.20
2022-08-16T13:34:13.332Z,6.30
2022-08-16T13:38:08.105Z,6.60
2022-08-16T13:41:54.233Z,7.50
2022-08-16T13:45:17.187Z,7.00
2022-08-16T13:49:13.408Z,7.30
2022-08-16T13:52:55.947Z,8.90
2022-08-16T13:56:39.678Z,7.90
2022-08-16T14:00:06.018Z,6.90
2022-08-16T14:03:40.120Z,7.20
2022-08-16T14:07:19.763Z,7.20
2022-08-16T14:10:53.158Z,7.40
2022-08-16T14:14:30.417Z,6.70
2022-08-16T14:18:16.056Z,6.10
2022-08-16T14:22:14.594Z,6.90
2022-08-16T14:25:57.322Z,6.90
2022-08-16T14:32:57.042Z,6.60
2022-08-16T14:36:33.038Z,6.70
2022-08-16T14:40:31.764Z,6.40
2022-08-16T14:44:12.351Z,7.80
2022-08-16T14:47:38.266Z,7.20
2022-08-16T14:51:12.235Z,6.80
2022-08-16T14:55:09.047Z,6.60
2022-08-16T14:58:51.675Z,6.80
2022-08-16T15:02:33.818Z,8.80
2022-08-16T15:05:57.259Z,8.00
2022-08-16T15:09:33.602Z,8.80
2022-08-16T15:13:29.390Z,8.80
2022-08-16T15:16:51.251Z,9.20
2022-08-16T15:20:33.453Z,9.20
2022-08-16T15:24:24.810Z,9.10
2022-08-16T15:27:55.278Z,8.30
2022-08-16T15:31:43.796Z,7.60
2022-08-16T15:35:08.081Z,7.50
2022-08-16T15:38:56.280Z,6.80
2022-08-16T15:42:27.449Z,7.80
2022-08-16T15:46:35.705Z,7.50
2022-08-16T15:50:06.590Z,7.10
2022-08-16T15:53:41.974Z,7.20
2022-08-16T15:57:17.982Z,7.10
2022-08-16T16:00:55.691Z,6.40
2022-08-16T16:04:50.663Z,6.10
2022-08-16T16:08:24.217Z,6.00
2022-08-16T16:11:53.150Z,6.20
2022-08-16T16:15:33.600Z,6.60
2022-08-16T16:19:06.840Z,6.60
2022-08-16T16:22:43.621Z,6.20
2022-08-16T16:26:19.738Z,6.30
2022-08-16T16:29:57.924Z,6.90
2022-08-16T16:33:35.865Z,6.80
2022-08-16T16:37:10.386Z,7.30
2022-08-16T16:40:54.366Z,7.10
2022-08-16T16:44:33.822Z,7.50
2022-08-16T16:48:12.449Z,6.90
2022-08-16T16:52:06.633Z,7.00
2022-08-16T16:55:29.105Z,7.20
2022-08-16T16:59:09.220Z,6.90
2022-08-16T17:03:01.817Z,6.70
2022-08-16T17:06:23.723Z,7.80
2022-08-16T17:14:05.185Z,6.80
2022-08-16T17:18:00.175Z,7.90
2022-08-16T17:21:24.136Z,7.60
2022-08-16T17:25:00.992Z,7.80
2022-08-16T17:28:59.033Z,8.30
2022-08-16T17:32:46.550Z,7.90
2022-08-16T17:36:06.093Z,7.20
2022-08-16T17:39:26.200Z,7.70
2022-08-16T17:39:59.616Z,6.50
2022-08-16T17:43:29.093Z,7.20
2022-08-16T17:47:18.472Z,8.70
2022-08-16T17:50:59.309Z,7.80
2022-08-16T17:54:30.753Z,6.90
2022-08-16T17:58:01.920Z,6.50
2022-08-16T18:01:42.667Z,6.80
2022-08-16T18:05:20.371Z,7.90
2022-08-16T18:09:02.471Z,7.90
2022-08-16T18:12:45.280Z,7.40
2022-08-16T18:16:18.566Z,8.00
2022-08-16T18:19:55.095Z,8.30
2022-08-16T18:23:32.745Z,8.30
2022-08-16T18:27:25.836Z,8.40
2022-08-16T18:31:11.390Z,8.20
2022-08-16T18:34:55.542Z,7.70
2022-08-16T18:38:17.135Z,10.20
2022-08-16T18:41:54.233Z,8.80
2022-08-16T18:45:35.515Z,8.90
2022-08-16T18:49:07.549Z,10.10
2022-08-16T18:52:50.461Z,10.90
2022-08-16T18:56:53.837Z,10.10
2022-08-16T19:00:13.725Z,9.80
2022-08-16T19:04:06.458Z,14.10
2022-08-16T19:07:48.942Z,10.50
2022-08-16T19:11:28.549Z,14.00
2022-08-16T19:15:02.214Z,28.00
2022-08-16T19:18:57.722Z,39.60
2022-08-16T19:23:01.741Z,37.40
2022-08-16T19:26:25.645Z,18.00
2022-08-16T19:29:50.762Z,13.40
2022-08-16T19:33:27.236Z,10.50
2022-08-16T19:37:24.045Z,8.90
2022-08-16T19:40:48.937Z,10.50
2022-08-16T19:44:23.235Z,10.70
2022-08-16T19:48:03.684Z,9.70
2022-08-16T19:51:37.641Z,9.90
2022-08-16T19:55:13.159Z,9.90
2022-08-16T19:59:17.604Z,9.90
2022-08-16T20:02:54.241Z,8.30
2022-08-16T20:06:32.101Z,7.90
2022-08-16T20:10:18.401Z,7.30
2022-08-16T20:13:41.864Z,6.80
2022-08-16T20:17:17.696Z,7.60
2022-08-16T20:21:12.963Z,8.90
2022-08-16T20:24:54.317Z,8.50
2022-08-16T20:28:39.672Z,8.60
2022-08-16T20:32:00.916Z,8.10
2022-08-16T20:35:42.460Z,7.50
2022-08-16T20:39:13.842Z,8.20
2022-08-16T20:43:12.887Z,7.30
2022-08-16T20:46:54.782Z,9.90
2022-08-16T20:50:16.550Z,8.80
2022-08-16T20:54:11.959Z,8.90
2022-08-16T20:57:37.975Z,7.70
2022-08-16T21:01:13.558Z,8.10
2022-08-16T21:05:10.289Z,7.70
2022-08-16T21:08:51.775Z,9.90
2022-08-16T21:12:18.073Z,8.20
2022-08-16T21:15:55.667Z,7.70
2022-08-16T21:19:30.602Z,7.80
2022-08-16T21:23:25.362Z,7.80
2022-08-16T21:27:06.307Z,7.10
2022-08-16T21:30:32.343Z,6.60
2022-08-16T21:34:23.803Z,7.60
2022-08-16T21:38:01.062Z,7.60
2022-08-16T21:41:46.614Z,7.50
2022-08-16T21:45:13.495Z,6.70
2022-08-16T21:48:45.327Z,7.10
2022-08-16T21:52:26.634Z,7.70
2022-08-16T21:56:00.430Z,8.60
2022-08-16T21:59:55.248Z,8.40
2022-08-16T22:03:21.209Z,8.70
2022-08-16T22:06:54.020Z,7.50
2022-08-16T22:11:04.698Z,7.40
2022-08-16T22:14:14.797Z,8.20
2022-08-16T22:17:58.314Z,8.60
2022-08-16T22:21:28.763Z,9.20
2022-08-16T22:25:05.867Z,7.80
2022-08-16T22:28:46.030Z,8.40
2022-08-16T22:32:19.241Z,7.40
2022-08-16T22:35:58.600Z,7.30
2022-08-16T22:39:51.215Z,8.70
2022-08-16T22:43:32.466Z,8.20
2022-08-16T22:46:54.473Z,7.90
2022-08-16T22:50:32.530Z,8.40
2022-08-16T22:54:44.375Z,8.50
2022-08-16T22:58:36.292Z,8.80
2022-08-16T23:02:20.709Z,7.70
2022-08-16T23:05:52.976Z,8.10
2022-08-16T23:09:19.853Z,8.80
2022-08-16T23:12:59.394Z,9.30
2022-08-16T23:16:51.575Z,8.00
2022-08-16T23:20:13.034Z,9.10
2022-08-16T23:23:50.893Z,8.50
2022-08-16T23:27:26.719Z,9.50
2022-08-16T23:31:23.048Z,10.10
2022-08-16T23:35:03.651Z,9.80
2022-08-16T23:38:38.062Z,9.20
2022-08-16T23:42:52.858Z,8.60
2022-08-16T23:46:21.727Z,7.60
2022-08-16T23:49:58.570Z,8.30
2022-08-16T23:53:33.724Z,9.40
2022-08-16T23:57:04.547Z,9.20
